createdAt,value
2022-09-01T00:04:30.955Z,24.90
2022-09-01T00:11:16.547Z,24.86
2022-09-01T00:18:02.139Z,24.81
2022-09-01T00:24:50.522Z,24.73
2022-09-01T00:31:37.137Z,24.67
2022-09-01T00:38:22.631Z,24.59
2022-09-01T00:45:13.855Z,24.48
2022-09-01T00:52:07.354Z,24.47
2022-09-01T00:58:53.063Z,24.45
2022-09-01T01:05:46.841Z,24.39
2022-09-01T01:12:33.328Z,24.29
2022-09-01T01:19:40.937Z,24.17
2022-09-01T01:26:29.066Z,24.10
2022-09-01T01:33:15.410Z,24.05
2022-09-01T01:40:02.215Z,24.01
2022-09-01T01:46:54.925Z,23.87
2022-09-01T01:53:43.589Z,23.73
2022-09-01T02:00:34.645Z,23.57
2022-09-01T02:07:23.952Z,23.32
2022-09-01T02:14:13.492Z,23.37
2022-09-01T02:21:06.011Z,23.35
2022-09-01T02:27:55.576Z,23.36
2022-09-01T02:34:41.067Z,23.06
2022-09-01T02:41:29.305Z,23.34
2022-09-01T03:02:08.412Z,23.11
2022-09-01T03:08:55.081Z,22.98
2022-09-01T03:15:41.402Z,22.85
2022-09-01T03:22:29.851Z,22.66
2022-09-01T03:29:15.701Z,22.60
2022-09-01T03:36:01.740Z,22.56
2022-09-01T03:42:54.004Z,22.50
2022-09-01T03:49:40.569Z,22.45
2022-09-01T03:56:27.493Z,22.50
2022-09-01T04:03:28.563Z,22.51
2022-09-01T04:10:14.332Z,22.71
2022-09-01T04:17:12.354Z,22.82
2022-09-01T04:24:05.294Z,22.78
2022-09-01T04:30:55.769Z,22.57
2022-09-01T04:37:43.219Z,22.37
2022-09-01T04:44:31.353Z,22.76
2022-09-01T04:51:18.075Z,22.63
2022-09-01T04:58:17.799Z,22.65
2022-09-01T05:05:10.268Z,22.67
2022-09-01T05:11:56.495Z,22.71
2022-09-01T05:18:48.993Z,22.68
2022-09-01T05:25:43.998Z,22.59
2022-09-01T05:32:30.480Z,22.57
2022-09-01T05:39:16.456Z,22.50
2022-09-01T05:46:07.412Z,22.39
2022-09-01T05:52:54.946Z,22.31
2022-09-01T05:59:41.528Z,22.26
2022-09-01T06:07:01.788Z,22.23
2022-09-01T06:13:47.324Z,22.21
2022-09-01T06:20:33.100Z,22.12
2022-09-01T06:27:21.882Z,22.05
2022-09-01T06:34:13.946Z,22.07
2022-09-01T06:41:05.025Z,22.08
2022-09-01T06:47:57.657Z,22.08
2022-09-01T06:54:45.972Z,22.10
2022-09-01T07:01:32.415Z,21.77
2022-09-01T07:08:23.538Z,22.21
2022-09-01T07:22:38.541Z,22.56
2022-09-01T07:29:37.133Z,22.73
2022-09-01T07:36:25.920Z,22.90
2022-09-01T07:43:23.252Z,23.12
2022-09-01T07:57:56.072Z,23.56
2022-09-01T08:04:41.825Z,23.79
2022-09-01T08:11:58.555Z,23.72
2022-09-01T08:18:53.848Z,23.87
2022-09-01T08:25:50.713Z,23.99
2022-09-01T08:32:42.217Z,24.10
2022-09-01T08:39:28.913Z,24.24
2022-09-01T08:46:23.145Z,24.26
2022-09-01T08:53:25.217Z,24.35
2022-09-01T09:00:15.860Z,24.49
2022-09-01T09:07:14.276Z,24.72
2022-09-01T09:14:14.035Z,24.87
2022-09-01T09:21:01.132Z,25.07
2022-09-01T09:27:49.896Z,24.81
2022-09-01T09:34:41.767Z,25.56
2022-09-01T09:41:27.798Z,25.88
2022-09-01T09:48:30.624Z,26.24
2022-09-01T09:55:28.476Z,26.57
2022-09-01T10:02:31.399Z,26.76
2022-09-01T10:09:36.273Z,26.88
2022-09-01T10:16:32.098Z,27.01
2022-09-01T10:23:18.465Z,27.06
2022-09-01T10:30:13.894Z,27.23
2022-09-01T10:37:11.370Z,27.38
2022-09-01T10:43:59.881Z,27.52
2022-09-01T10:50:47.864Z,27.71
2022-09-01T10:57:51.179Z,27.98
2022-09-01T11:05:14.028Z,28.13
2022-09-01T11:12:41.995Z,28.05
2022-09-01T11:19:45.101Z,28.18
2022-09-01T11:26:50.725Z,28.41
2022-09-01T11:33:51.152Z,28.59
2022-09-01T11:40:40.054Z,28.59
2022-09-01T11:47:31.722Z,28.74
2022-09-01T11:54:18.826Z,28.79
2022-09-01T12:01:22.093Z,28.85
2022-09-01T12:08:18.382Z,28.70
2022-09-01T12:15:20.664Z,29.35
2022-09-01T12:22:17.796Z,29.03
2022-09-01T12:29:03.391Z,29.32
2022-09-01T12:35:49.687Z,29.34
2022-09-01T12:42:41.074Z,29.07
2022-09-01T12:49:45.242Z,28.98
2022-09-01T12:56:39.086Z,29.28
2022-09-01T13:03:27.622Z,29.40
2022-09-01T13:10:13.134Z,29.54
2022-09-01T13:16:58.641Z,29.75
2022-09-01T13:23:46.801Z,29.92
2022-09-01T13:30:32.969Z,29.90
2022-09-01T13:37:18.479Z,29.92
2022-09-01T13:44:09.974Z,29.93
2022-09-01T13:58:01.792Z,30.11
2022-09-01T14:04:50.474Z,30.21
2022-09-01T14:11:36.545Z,30.33
2022-09-01T14:18:22.451Z,30.24
2022-09-01T14:25:12.235Z,30.21
2022-09-01T14:31:58.632Z,30.24
2022-09-01T14:38:44.165Z,30.25
2022-09-01T14:45:32.530Z,30.32
2022-09-01T14:52:18.626Z,30.40
2022-09-01T14:59:05.192Z,30.37
2022-09-01T15:05:54.185Z,30.33
2022-09-01T15:12:40.044Z,30.36
2022-09-01T15:19:25.552Z,30.43
2022-09-01T15:26:13.626Z,30.45
2022-09-01T15:32:59.247Z,30.27
2022-09-01T15:39:44.745Z,30.59
2022-09-01T15:46:34.577Z,30.63
2022-09-01T15:53:21.204Z,30.55
2022-09-01T16:00:09.546Z,30.72
2022-09-01T16:07:00.217Z,30.67
2022-09-01T16:13:46.924Z,30.61
2022-09-01T16:20:52.615Z,30.10
2022-09-01T16:27:45.860Z,30.39
2022-09-01T16:34:32.128Z,30.39
2022-09-01T16:41:39.719Z,30.40
2022-09-01T16:48:36.177Z,30.37
2022-09-01T16:55:31.153Z,30.30
2022-09-01T17:02:32.600Z,30.31
2022-09-01T17:09:27.786Z,30.20
2022-09-01T17:16:22.293Z,30.14
2022-09-01T17:23:09.062Z,30.11
2022-09-01T17:29:59.893Z,30.05
2022-09-01T17:36:56.937Z,29.98
2022-09-01T17:43:56.183Z,29.31
2022-09-01T17:51:01.966Z,29.90
2022-09-01T17:57:57.184Z,29.87
2022-09-01T18:05:06.381Z,29.73
2022-09-01T18:12:02.488Z,29.70
2022-09-01T18:18:51.211Z,29.67
2022-09-01T18:25:47.931Z,29.62
2022-09-01T18:32:45.227Z,29.46
2022-09-01T18:39:41.320Z,29.69
2022-09-01T18:46:38.274Z,29.93
2022-09-01T18:53:42.257Z,30.12
2022-09-01T19:00:35.688Z,30.03
2022-09-01T19:07:31.168Z,29.81
2022-09-01T19:21:34.190Z,29.25
2022-09-01T19:28:27.212Z,29.48
2022-09-01T19:35:19.704Z,29.45
2022-09-01T19:42:11.339Z,29.39
2022-09-01T19:49:08.865Z,29.32
2022-09-01T19:56:04.696Z,29.26
2022-09-01T20:02:56.550Z,29.23
2022-09-01T20:09:52.265Z,28.81
2022-09-01T20:16:44.551Z,28.92
2022-09-01T20:23:36.714Z,29.11
2022-09-01T20:30:25.328Z,29.05
2022-09-01T20:37:23.627Z,28.96
2022-09-01T20:44:17.082Z,28.91
2022-09-01T20:51:11.773Z,28.42
2022-09-01T20:58:09.087Z,28.59
2022-09-01T21:05:06.245Z,28.55
2022-09-01T21:12:00.621Z,28.46
2022-09-01T21:19:01.445Z,28.28
2022-09-01T21:25:47.531Z,28.18
2022-09-01T21:32:35.376Z,28.09
2022-09-01T21:39:23.928Z,27.62
2022-09-01T21:46:13.722Z,27.70
2022-09-01T21:52:59.285Z,27.10
2022-09-01T21:59:47.402Z,27.37
2022-09-01T22:06:33.747Z,27.23
2022-09-01T22:13:20.029Z,26.35
2022-09-01T22:20:13.511Z,26.95
2022-09-01T22:26:59.073Z,26.79
2022-09-01T22:33:44.720Z,26.08
2022-09-01T22:40:32.852Z,26.51
2022-09-01T22:47:18.480Z,26.49
2022-09-01T22:54:04.356Z,26.52
2022-09-01T23:00:59.863Z,26.43
2022-09-01T23:07:45.922Z,26.38
2022-09-01T23:14:31.607Z,26.28
2022-09-01T23:21:23.772Z,26.19
2022-09-01T23:28:11.401Z,26.16
2022-09-01T23:34:57.044Z,25.56
2022-09-01T23:41:45.532Z,25.97
2022-09-01T23:48:31.128Z,25.97
2022-09-01T23:55:16.842Z,25.88
